Aviation Digital Data Service (ADDS)

Output produced by METARs form (1021 UTC 01 October 2016)
found at http://aviationweather.gov/adds/metars/
 
KBDL 010819Z 0108/0212 36010KT 4SM -SHRA BR OVC008 
     FM011400 01008KT 4SM BR VCSH OVC008 
     FM011600 02007KT 4SM BR VCSH OVC010 
     FM020200 02007KT 4SM -SHRA BR OVC015 
     FM020500 03006KT 5SM BR VCSH OVC010